sensor_id;sensor_type;location;lat;lon;timestamp;temperature;humidity
52267;DHT22;38223;50.940;4.034;2024-03-08T00:00:52;6.60;99.90
52267;DHT22;38223;50.940;4.034;2024-03-08T00:03:27;6.50;99.90
52267;DHT22;38223;50.940;4.034;2024-03-08T00:05:58;6.40;99.90
52267;DHT22;38223;50.940;4.034;2024-03-08T00:08:28;6.40;99.90
52267;DHT22;38223;50.940;4.034;2024-03-08T00:10:56;6.40;99.90
52267;DHT22;38223;50.940;4.034;2024-03-08T00:13:24;6.40;99.90
52267;DHT22;38223;50.940;4.034;2024-03-08T00:15:54;6.30;99.90
52267;DHT22;38223;50.940;4.034;2024-03-08T00:18:24;6.20;99.90
52267;DHT22;38223;50.940;4.034;2024-03-08T00:20:55;6.20;99.90
52267;DHT22;38223;50.940;4.034;2024-03-08T00:23:24;6.30;99.90
52267;DHT22;38223;50.940;4.034;2024-03-08T00:25:55;6.20;99.90
52267;DHT22;38223;50.940;4.034;2024-03-08T00:28:21;6.10;99.90
52267;DHT22;38223;50.940;4.034;2024-03-08T00:30:51;6.10;99.90
52267;DHT22;38223;50.940;4.034;2024-03-08T00:33:19;6.10;99.90
52267;DHT22;38223;50.940;4.034;2024-03-08T00:35:47;6.10;99.90
52267;DHT22;38223;50.940;4.034;2024-03-08T00:38:15;5.90;99.90
52267;DHT22;38223;50.940;4.034;2024-03-08T00:40:45;5.90;99.90
52267;DHT22;38223;50.940;4.034;2024-03-08T00:43:16;5.90;99.90
52267;DHT22;38223;50.940;4.034;2024-03-08T00:45:45;5.90;99.90
52267;DHT22;38223;50.940;4.034;2024-03-08T00:48:14;6.00;99.90
52267;DHT22;38223;50.940;4.034;2024-03-08T00:50:44;5.90;99.90
52267;DHT22;38223;50.940;4.034;2024-03-08T00:53:15;6.00;99.90
52267;DHT22;38223;50.940;4.034;2024-03-08T00:55:42;6.10;99.90
52267;DHT22;38223;50.940;4.034;2024-03-08T00:58:13;6.10;99.90
52267;DHT22;38223;50.940;4.034;2024-03-08T01:00:43;6.10;99.90
52267;DHT22;38223;50.940;4.034;2024-03-08T01:03:11;6.10;99.90
52267;DHT22;38223;50.940;4.034;2024-03-08T01:05:46;6.00;99.90
52267;DHT22;38223;50.940;4.034;2024-03-08T01:08:21;5.90;99.90
52267;DHT22;38223;50.940;4.034;2024-03-08T01:10:48;6.00;99.90
52267;DHT22;38223;50.940;4.034;2024-03-08T01:13:17;5.90;99.90
52267;DHT22;38223;50.940;4.034;2024-03-08T01:16:05;6.00;99.90
52267;DHT22;38223;50.940;4.034;2024-03-08T01:18:35;6.00;99.90
52267;DHT22;38223;50.940;4.034;2024-03-08T01:21:23;6.00;99.90
52267;DHT22;38223;50.940;4.034;2024-03-08T01:23:51;6.00;99.90
52267;DHT22;38223;50.940;4.034;2024-03-08T01:26:25;5.90;99.90
52267;DHT22;38223;50.940;4.034;2024-03-08T01:28:56;5.70;99.90
52267;DHT22;38223;50.940;4.034;2024-03-08T01:31:26;5.80;99.90
52267;DHT22;38223;50.940;4.034;2024-03-08T01:33:54;5.80;99.90
52267;DHT22;38223;50.940;4.034;2024-03-08T01:36:23;5.80;99.90
52267;DHT22;38223;50.940;4.034;2024-03-08T01:38:51;5.70;99.90
52267;DHT22;38223;50.940;4.034;2024-03-08T01:41:22;5.70;99.90
52267;DHT22;38223;50.940;4.034;2024-03-08T01:43:52;5.70;99.90
52267;DHT22;38223;50.940;4.034;2024-03-08T01:46:21;5.70;99.90
52267;DHT22;38223;50.940;4.034;2024-03-08T01:48:52;5.80;99.90
52267;DHT22;38223;50.940;4.034;2024-03-08T01:51:24;5.80;99.90
52267;DHT22;38223;50.940;4.034;2024-03-08T01:53:56;5.90;99.90
52267;DHT22;38223;50.940;4.034;2024-03-08T01:56:26;5.90;99.90
52267;DHT22;38223;50.940;4.034;2024-03-08T01:58:56;5.90;99.90
52267;DHT22;38223;50.940;4.034;2024-03-08T02:01:28;5.80;99.90
52267;DHT22;38223;50.940;4.034;2024-03-08T02:03:58;5.70;99.90
52267;DHT22;38223;50.940;4.034;2024-03-08T02:06:32;5.80;99.90
52267;DHT22;38223;50.940;4.034;2024-03-08T02:09:03;5.90;99.90
52267;DHT22;38223;50.940;4.034;2024-03-08T02:11:35;5.80;99.90
52267;DHT22;38223;50.940;4.034;2024-03-08T02:14:05;5.80;99.90
52267;DHT22;38223;50.940;4.034;2024-03-08T02:16:34;5.70;99.90
52267;DHT22;38223;50.940;4.034;2024-03-08T02:19:03;5.60;99.90
52267;DHT22;38223;50.940;4.034;2024-03-08T02:21:34;5.60;99.90
52267;DHT22;38223;50.940;4.034;2024-03-08T02:24:04;5.70;99.90
52267;DHT22;38223;50.940;4.034;2024-03-08T02:26:35;5.50;99.90
52267;DHT22;38223;50.940;4.034;2024-03-08T02:29:06;5.50;99.90
52267;DHT22;38223;50.940;4.034;2024-03-08T02:31:33;5.40;99.90
52267;DHT22;38223;50.940;4.034;2024-03-08T02:34:02;5.40;99.90
52267;DHT22;38223;50.940;4.034;2024-03-08T02:36:32;5.40;99.90
52267;DHT22;38223;50.940;4.034;2024-03-08T02:39:02;5.50;99.90
52267;DHT22;38223;50.940;4.034;2024-03-08T02:41:50;5.50;99.90
52267;DHT22;38223;50.940;4.034;2024-03-08T02:44:17;5.50;99.90
52267;DHT22;38223;50.940;4.034;2024-03-08T02:46:44;5.50;99.90
52267;DHT22;38223;50.940;4.034;2024-03-08T02:49:11;5.30;99.90
52267;DHT22;38223;50.940;4.034;2024-03-08T02:51:42;5.30;99.90
52267;DHT22;38223;50.940;4.034;2024-03-08T02:54:14;5.40;99.90
52267;DHT22;38223;50.940;4.034;2024-03-08T02:56:44;5.40;99.90
52267;DHT22;38223;50.940;4.034;2024-03-08T02:59:18;5.40;99.90
52267;DHT22;38223;50.940;4.034;2024-03-08T03:01:46;5.30;99.90
52267;DHT22;38223;50.940;4.034;2024-03-08T03:04:18;5.10;99.90
52267;DHT22;38223;50.940;4.034;2024-03-08T03:06:45;5.20;99.90
52267;DHT22;38223;50.940;4.034;2024-03-08T03:09:17;5.30;99.90
52267;DHT22;38223;50.940;4.034;2024-03-08T03:11:47;5.30;99.90
52267;DHT22;38223;50.940;4.034;2024-03-08T03:14:19;5.30;99.90
52267;DHT22;38223;50.940;4.034;2024-03-08T03:16:47;5.30;99.90
52267;DHT22;38223;50.940;4.034;2024-03-08T03:19:16;5.50;99.90
52267;DHT22;38223;50.940;4.034;2024-03-08T03:21:43;5.50;99.90
52267;DHT22;38223;50.940;4.034;2024-03-08T03:24:11;5.30;99.90
52267;DHT22;38223;50.940;4.034;2024-03-08T03:26:43;5.30;99.90
52267;DHT22;38223;50.940;4.034;2024-03-08T03:29:11;5.30;99.90
52267;DHT22;38223;50.940;4.034;2024-03-08T03:31:39;5.40;99.90
52267;DHT22;38223;50.940;4.034;2024-03-08T03:34:09;5.30;99.90
52267;DHT22;38223;50.940;4.034;2024-03-08T03:36:38;5.20;99.90
52267;DHT22;38223;50.940;4.034;2024-03-08T03:39:07;5.10;99.90
52267;DHT22;38223;50.940;4.034;2024-03-08T03:41:40;5.10;99.90
52267;DHT22;38223;50.940;4.034;2024-03-08T03:44:10;5.10;99.90
52267;DHT22;38223;50.940;4.034;2024-03-08T03:46:42;5.10;99.90
52267;DHT22;38223;50.940;4.034;2024-03-08T03:49:13;5.10;99.90
52267;DHT22;38223;50.940;4.034;2024-03-08T03:51:45;5.20;99.90
52267;DHT22;38223;50.940;4.034;2024-03-08T03:54:16;5.10;99.90
52267;DHT22;38223;50.940;4.034;2024-03-08T03:56:46;5.00;99.90
52267;DHT22;38223;50.940;4.034;2024-03-08T03:59:19;5.00;99.90
52267;DHT22;38223;50.940;4.034;2024-03-08T04:01:48;4.90;99.90
52267;DHT22;38223;50.940;4.034;2024-03-08T04:04:16;4.80;99.90
52267;DHT22;38223;50.940;4.034;2024-03-08T04:06:45;4.80;99.90
52267;DHT22;38223;50.940;4.034;2024-03-08T04:09:16;4.80;99.90
52267;DHT22;38223;50.940;4.034;2024-03-08T04:11:45;4.70;99.90
52267;DHT22;38223;50.940;4.034;2024-03-08T04:14:13;4.70;99.90
52267;DHT22;38223;50.940;4.034;2024-03-08T04:16:46;4.60;99.90
52267;DHT22;38223;50.940;4.034;2024-03-08T04:19:14;4.80;99.90
52267;DHT22;38223;50.940;4.034;2024-03-08T04:21:44;4.90;99.90
52267;DHT22;38223;50.940;4.034;2024-03-08T04:24:15;4.80;99.90
52267;DHT22;38223;50.940;4.034;2024-03-08T04:26:45;4.80;99.90
52267;DHT22;38223;50.940;4.034;2024-03-08T04:29:16;4.80;99.90
52267;DHT22;38223;50.940;4.034;2024-03-08T04:31:47;4.90;99.90
52267;DHT22;38223;50.940;4.034;2024-03-08T04:34:23;4.70;99.90
52267;DHT22;38223;50.940;4.034;2024-03-08T04:36:52;4.70;99.90
52267;DHT22;38223;50.940;4.034;2024-03-08T04:39:27;4.80;99.90
52267;DHT22;38223;50.940;4.034;2024-03-08T04:41:59;4.70;99.90
52267;DHT22;38223;50.940;4.034;2024-03-08T04:44:49;4.70;99.90
52267;DHT22;38223;50.940;4.034;2024-03-08T04:47:21;4.70;99.90
52267;DHT22;38223;50.940;4.034;2024-03-08T04:49:54;4.60;99.90
52267;DHT22;38223;50.940;4.034;2024-03-08T04:52:31;4.50;99.90
52267;DHT22;38223;50.940;4.034;2024-03-08T04:55:01;4.50;99.90
52267;DHT22;38223;50.940;4.034;2024-03-08T04:57:39;4.60;99.90
52267;DHT22;38223;50.940;4.034;2024-03-08T05:00:11;4.70;99.90
52267;DHT22;38223;50.940;4.034;2024-03-08T05:02:45;4.60;99.90
52267;DHT22;38223;50.940;4.034;2024-03-08T05:05:17;4.70;99.90
52267;DHT22;38223;50.940;4.034;2024-03-08T05:07:51;4.80;99.90
52267;DHT22;38223;50.940;4.034;2024-03-08T05:10:26;4.70;99.90
52267;DHT22;38223;50.940;4.034;2024-03-08T05:12:54;4.70;99.90
52267;DHT22;38223;50.940;4.034;2024-03-08T05:15:22;4.60;99.90
52267;DHT22;38223;50.940;4.034;2024-03-08T05:17:56;4.50;99.90
52267;DHT22;38223;50.940;4.034;2024-03-08T05:20:28;4.50;99.90
52267;DHT22;38223;50.940;4.034;2024-03-08T05:22:58;4.40;99.90
52267;DHT22;38223;50.940;4.034;2024-03-08T05:25:30;4.40;99.90
52267;DHT22;38223;50.940;4.034;2024-03-08T05:28:01;4.40;99.90
52267;DHT22;38223;50.940;4.034;2024-03-08T05:30:30;4.40;99.90
52267;DHT22;38223;50.940;4.034;2024-03-08T05:33:12;4.40;99.90
52267;DHT22;38223;50.940;4.034;2024-03-08T05:35:50;4.50;99.90
52267;DHT22;38223;50.940;4.034;2024-03-08T05:38:26;4.50;99.90
52267;DHT22;38223;50.940;4.034;2024-03-08T05:40:54;4.60;99.90
52267;DHT22;38223;50.940;4.034;2024-03-08T05:43:33;4.50;99.90
52267;DHT22;38223;50.940;4.034;2024-03-08T05:46:06;4.50;99.90
52267;DHT22;38223;50.940;4.034;2024-03-08T05:48:57;4.60;99.90
52267;DHT22;38223;50.940;4.034;2024-03-08T05:51:29;4.60;99.90
52267;DHT22;38223;50.940;4.034;2024-03-08T05:54:02;4.40;99.90
52267;DHT22;38223;50.940;4.034;2024-03-08T05:56:39;4.50;99.90
52267;DHT22;38223;50.940;4.034;2024-03-08T05:59:11;4.50;99.90
52267;DHT22;38223;50.940;4.034;2024-03-08T06:01:46;4.50;99.90
52267;DHT22;38223;50.940;4.034;2024-03-08T06:04:16;4.50;99.90
52267;DHT22;38223;50.940;4.034;2024-03-08T06:06:46;4.40;99.90
52267;DHT22;38223;50.940;4.034;2024-03-08T06:09:20;4.40;99.90
52267;DHT22;38223;50.940;4.034;2024-03-08T06:12:05;4.30;99.90
52267;DHT22;38223;50.940;4.034;2024-03-08T06:14:39;4.50;99.90
52267;DHT22;38223;50.940;4.034;2024-03-08T06:17:14;4.40;99.90
52267;DHT22;38223;50.940;4.034;2024-03-08T06:19:43;4.40;99.90
52267;DHT22;38223;50.940;4.034;2024-03-08T06:22:14;4.40;99.90
52267;DHT22;38223;50.940;4.034;2024-03-08T06:24:46;4.30;99.90
52267;DHT22;38223;50.940;4.034;2024-03-08T06:27:22;4.30;99.90
52267;DHT22;38223;50.940;4.034;2024-03-08T06:30:01;4.50;99.90
52267;DHT22;38223;50.940;4.034;2024-03-08T06:32:32;4.50;99.90
52267;DHT22;38223;50.940;4.034;2024-03-08T06:35:03;4.60;99.90
52267;DHT22;38223;50.940;4.034;2024-03-08T06:37:34;4.50;99.90
52267;DHT22;38223;50.940;4.034;2024-03-08T06:40:09;4.40;99.90
52267;DHT22;38223;50.940;4.034;2024-03-08T06:42:40;4.20;99.90
52267;DHT22;38223;50.940;4.034;2024-03-08T06:45:11;4.30;99.90
52267;DHT22;38223;50.940;4.034;2024-03-08T06:47:55;4.20;99.90
52267;DHT22;38223;50.940;4.034;2024-03-08T06:50:25;4.40;99.90
52267;DHT22;38223;50.940;4.034;2024-03-08T06:52:55;4.50;99.90
52267;DHT22;38223;50.940;4.034;2024-03-08T06:55:25;4.30;99.90
52267;DHT22;38223;50.940;4.034;2024-03-08T06:57:54;4.30;99.90
52267;DHT22;38223;50.940;4.034;2024-03-08T07:00:22;4.20;99.90
52267;DHT22;38223;50.940;4.034;2024-03-08T07:02:51;4.60;99.90
52267;DHT22;38223;50.940;4.034;2024-03-08T07:05:19;4.50;99.90
52267;DHT22;38223;50.940;4.034;2024-03-08T07:07:49;4.60;99.90
52267;DHT22;38223;50.940;4.034;2024-03-08T07:10:17;4.60;99.90
52267;DHT22;38223;50.940;4.034;2024-03-08T07:12:46;4.50;99.90
52267;DHT22;38223;50.940;4.034;2024-03-08T07:15:16;4.40;99.90
52267;DHT22;38223;50.940;4.034;2024-03-08T07:17:45;4.40;99.90
52267;DHT22;38223;50.940;4.034;2024-03-08T07:20:15;4.50;99.90
52267;DHT22;38223;50.940;4.034;2024-03-08T07:22:45;4.30;99.90
52267;DHT22;38223;50.940;4.034;2024-03-08T07:25:16;4.40;99.90
52267;DHT22;38223;50.940;4.034;2024-03-08T07:27:51;4.40;99.90
52267;DHT22;38223;50.940;4.034;2024-03-08T07:30:23;4.50;99.90
52267;DHT22;38223;50.940;4.034;2024-03-08T07:33:08;4.60;99.90
52267;DHT22;38223;50.940;4.034;2024-03-08T07:35:38;4.60;99.90
52267;DHT22;38223;50.940;4.034;2024-03-08T07:38:08;4.70;99.90
52267;DHT22;38223;50.940;4.034;2024-03-08T07:40:38;4.80;99.90
52267;DHT22;38223;50.940;4.034;2024-03-08T07:43:08;4.70;99.90
52267;DHT22;38223;50.940;4.034;2024-03-08T07:45:39;4.60;99.90
52267;DHT22;38223;50.940;4.034;2024-03-08T07:48:10;4.70;99.90
52267;DHT22;38223;50.940;4.034;2024-03-08T07:50:40;4.80;99.90
52267;DHT22;38223;50.940;4.034;2024-03-08T07:53:11;4.70;99.90
52267;DHT22;38223;50.940;4.034;2024-03-08T07:55:40;4.60;99.90
52267;DHT22;38223;50.940;4.034;2024-03-08T07:58:10;4.70;99.90
52267;DHT22;38223;50.940;4.034;2024-03-08T08:00:42;4.70;99.90
52267;DHT22;38223;50.940;4.034;2024-03-08T08:03:17;4.90;99.90
52267;DHT22;38223;50.940;4.034;2024-03-08T08:05:51;5.00;99.90
52267;DHT22;38223;50.940;4.034;2024-03-08T08:08:35;4.90;99.90
52267;DHT22;38223;50.940;4.034;2024-03-08T08:11:25;5.00;99.90
52267;DHT22;38223;50.940;4.034;2024-03-08T08:13:58;5.00;99.90
52267;DHT22;38223;50.940;4.034;2024-03-08T08:16:29;5.00;99.90
52267;DHT22;38223;50.940;4.034;2024-03-08T08:18:59;5.00;99.90
52267;DHT22;38223;50.940;4.034;2024-03-08T08:21:34;5.00;99.90
52267;DHT22;38223;50.940;4.034;2024-03-08T08:24:11;5.00;99.90
52267;DHT22;38223;50.940;4.034;2024-03-08T08:26:44;5.20;99.90
52267;DHT22;38223;50.940;4.034;2024-03-08T08:29:12;5.20;99.90
52267;DHT22;38223;50.940;4.034;2024-03-08T08:31:47;5.30;99.90
52267;DHT22;38223;50.940;4.034;2024-03-08T08:34:28;5.40;99.90
52267;DHT22;38223;50.940;4.034;2024-03-08T08:36:58;5.50;99.90
52267;DHT22;38223;50.940;4.034;2024-03-08T08:39:30;5.40;99.90
52267;DHT22;38223;50.940;4.034;2024-03-08T08:42:06;5.30;99.90
52267;DHT22;38223;50.940;4.034;2024-03-08T08:44:35;5.40;99.90
52267;DHT22;38223;50.940;4.034;2024-03-08T08:47:06;5.50;99.90
52267;DHT22;38223;50.940;4.034;2024-03-08T08:49:38;5.60;99.90
52267;DHT22;38223;50.940;4.034;2024-03-08T08:52:14;5.70;99.90
52267;DHT22;38223;50.940;4.034;2024-03-08T08:54:51;5.60;99.90
52267;DHT22;38223;50.940;4.034;2024-03-08T08:57:25;5.70;99.90
52267;DHT22;38223;50.940;4.034;2024-03-08T08:59:57;5.90;99.90
52267;DHT22;38223;50.940;4.034;2024-03-08T09:02:27;5.90;99.90
52267;DHT22;38223;50.940;4.034;2024-03-08T09:05:00;6.00;99.90
52267;DHT22;38223;50.940;4.034;2024-03-08T09:13:03;6.00;99.90
52267;DHT22;38223;50.940;4.034;2024-03-08T09:15:35;6.50;99.90
52267;DHT22;38223;50.940;4.034;2024-03-08T09:18:13;6.60;99.90
52267;DHT22;38223;50.940;4.034;2024-03-08T09:20:44;6.50;99.90
52267;DHT22;38223;50.940;4.034;2024-03-08T09:23:13;6.50;99.90
52267;DHT22;38223;50.940;4.034;2024-03-08T09:25:42;6.60;99.90
52267;DHT22;38223;50.940;4.034;2024-03-08T09:28:10;6.60;99.90
52267;DHT22;38223;50.940;4.034;2024-03-08T09:30:39;6.70;99.90
52267;DHT22;38223;50.940;4.034;2024-03-08T09:33:11;6.70;99.90
52267;DHT22;38223;50.940;4.034;2024-03-08T09:35:41;6.80;99.90
52267;DHT22;38223;50.940;4.034;2024-03-08T09:38:10;6.70;99.90
52267;DHT22;38223;50.940;4.034;2024-03-08T09:40:43;6.90;99.90
52267;DHT22;38223;50.940;4.034;2024-03-08T09:43:10;7.00;99.90
52267;DHT22;38223;50.940;4.034;2024-03-08T09:45:41;7.10;99.90
52267;DHT22;38223;50.940;4.034;2024-03-08T09:48:12;7.20;99.90
52267;DHT22;38223;50.940;4.034;2024-03-08T09:50:42;7.20;99.90
52267;DHT22;38223;50.940;4.034;2024-03-08T09:53:11;7.20;99.90
52267;DHT22;38223;50.940;4.034;2024-03-08T09:55:41;7.30;99.90
52267;DHT22;38223;50.940;4.034;2024-03-08T09:58:13;7.40;99.90
52267;DHT22;38223;50.940;4.034;2024-03-08T10:00:45;7.40;99.90
52267;DHT22;38223;50.940;4.034;2024-03-08T10:03:14;7.50;99.90
52267;DHT22;38223;50.940;4.034;2024-03-08T10:05:45;7.50;99.90
52267;DHT22;38223;50.940;4.034;2024-03-08T10:08:15;7.70;99.90
52267;DHT22;38223;50.940;4.034;2024-03-08T10:10:43;7.80;99.90
52267;DHT22;38223;50.940;4.034;2024-03-08T10:13:13;7.70;99.90
52267;DHT22;38223;50.940;4.034;2024-03-08T10:15:43;7.70;99.90
52267;DHT22;38223;50.940;4.034;2024-03-08T10:18:17;7.70;99.90
52267;DHT22;38223;50.940;4.034;2024-03-08T10:20:46;7.70;99.90
52267;DHT22;38223;50.940;4.034;2024-03-08T10:23:16;7.80;99.90
52267;DHT22;38223;50.940;4.034;2024-03-08T10:25:50;7.80;99.90
52267;DHT22;38223;50.940;4.034;2024-03-08T10:28:18;8.10;99.90
52267;DHT22;38223;50.940;4.034;2024-03-08T10:30:51;8.20;99.90
52267;DHT22;38223;50.940;4.034;2024-03-08T10:33:20;8.30;99.90
52267;DHT22;38223;50.940;4.034;2024-03-08T10:35:50;8.30;99.90
52267;DHT22;38223;50.940;4.034;2024-03-08T10:38:20;8.30;99.90
52267;DHT22;38223;50.940;4.034;2024-03-08T10:40:50;8.30;99.90
52267;DHT22;38223;50.940;4.034;2024-03-08T10:43:22;8.90;99.90
52267;DHT22;38223;50.940;4.034;2024-03-08T10:45:53;9.90;99.90
52267;DHT22;38223;50.940;4.034;2024-03-08T10:48:31;10.60;99.90
52267;DHT22;38223;50.940;4.034;2024-03-08T10:50:59;10.90;99.90
52267;DHT22;38223;50.940;4.034;2024-03-08T10:53:29;11.30;99.90
52267;DHT22;38223;50.940;4.034;2024-03-08T10:55:57;11.50;99.90
52267;DHT22;38223;50.940;4.034;2024-03-08T10:58:27;11.60;99.90
52267;DHT22;38223;50.940;4.034;2024-03-08T11:00:57;11.80;99.90
52267;DHT22;38223;50.940;4.034;2024-03-08T11:06:15;12.10;99.90
52267;DHT22;38223;50.940;4.034;2024-03-08T11:08:45;12.30;99.90
52267;DHT22;38223;50.940;4.034;2024-03-08T11:14:01;12.30;99.90
52267;DHT22;38223;50.940;4.034;2024-03-08T11:21:39;12.50;99.90
52267;DHT22;38223;50.940;4.034;2024-03-08T11:24:10;12.70;99.90
52267;DHT22;38223;50.940;4.034;2024-03-08T11:26:39;12.60;99.90
52267;DHT22;38223;50.940;4.034;2024-03-08T11:29:52;12.50;99.90
52267;DHT22;38223;50.940;4.034;2024-03-08T11:31:42;12.30;99.90
52267;DHT22;38223;50.940;4.034;2024-03-08T11:34:19;12.40;99.90
52267;DHT22;38223;50.940;4.034;2024-03-08T11:36:47;12.00;99.90
52267;DHT22;38223;50.940;4.034;2024-03-08T11:39:16;12.30;99.90
52267;DHT22;38223;50.940;4.034;2024-03-08T11:41:45;12.50;99.90
52267;DHT22;38223;50.940;4.034;2024-03-08T11:44:14;12.50;99.90
52267;DHT22;38223;50.940;4.034;2024-03-08T11:46:51;12.60;99.90
52267;DHT22;38223;50.940;4.034;2024-03-08T11:49:19;12.70;99.90
52267;DHT22;38223;50.940;4.034;2024-03-08T11:51:50;12.60;99.90
52267;DHT22;38223;50.940;4.034;2024-03-08T11:54:17;12.70;99.90
52267;DHT22;38223;50.940;4.034;2024-03-08T11:56:48;12.30;99.90
52267;DHT22;38223;50.940;4.034;2024-03-08T11:59:17;12.40;99.90
52267;DHT22;38223;50.940;4.034;2024-03-08T12:02:02;12.70;99.90
52267;DHT22;38223;50.940;4.034;2024-03-08T12:04:32;12.60;99.90
52267;DHT22;38223;50.940;4.034;2024-03-08T12:07:02;12.60;99.90
52267;DHT22;38223;50.940;4.034;2024-03-08T12:09:33;12.60;99.90
52267;DHT22;38223;50.940;4.034;2024-03-08T12:12:03;12.70;99.90
52267;DHT22;38223;50.940;4.034;2024-03-08T12:14:32;12.80;99.90
52267;DHT22;38223;50.940;4.034;2024-03-08T12:17:02;12.80;99.90
52267;DHT22;38223;50.940;4.034;2024-03-08T12:19:33;12.90;99.90
52267;DHT22;38223;50.940;4.034;2024-03-08T12:22:09;13.30;99.90
52267;DHT22;38223;50.940;4.034;2024-03-08T12:24:36;13.30;99.90
52267;DHT22;38223;50.940;4.034;2024-03-08T12:27:20;13.40;99.90
52267;DHT22;38223;50.940;4.034;2024-03-08T12:29:48;13.40;99.90
52267;DHT22;38223;50.940;4.034;2024-03-08T12:32:17;13.60;99.90
52267;DHT22;38223;50.940;4.034;2024-03-08T12:34:51;13.70;99.90
52267;DHT22;38223;50.940;4.034;2024-03-08T12:37:15;13.80;99.90
52267;DHT22;38223;50.940;4.034;2024-03-08T12:39:45;13.40;99.90
52267;DHT22;38223;50.940;4.034;2024-03-08T12:42:17;13.40;99.90
52267;DHT22;38223;50.940;4.034;2024-03-08T12:44:50;13.40;99.90
52267;DHT22;38223;50.940;4.034;2024-03-08T12:47:21;13.20;99.90
52267;DHT22;38223;50.940;4.034;2024-03-08T12:49:54;13.30;99.90
52267;DHT22;38223;50.940;4.034;2024-03-08T12:52:22;13.40;99.90
52267;DHT22;38223;50.940;4.034;2024-03-08T12:54:54;13.40;99.90
52267;DHT22;38223;50.940;4.034;2024-03-08T12:57:21;13.50;99.90
52267;DHT22;38223;50.940;4.034;2024-03-08T12:59:51;13.80;99.90
52267;DHT22;38223;50.940;4.034;2024-03-08T13:02:19;13.60;99.90
52267;DHT22;38223;50.940;4.034;2024-03-08T13:04:49;13.50;99.90
52267;DHT22;38223;50.940;4.034;2024-03-08T13:07:19;13.30;99.90
52267;DHT22;38223;50.940;4.034;2024-03-08T13:09:48;13.00;99.90
52267;DHT22;38223;50.940;4.034;2024-03-08T13:12:17;12.90;99.90
52267;DHT22;38223;50.940;4.034;2024-03-08T13:14:47;13.00;99.90
52267;DHT22;38223;50.940;4.034;2024-03-08T13:17:18;13.20;99.90
52267;DHT22;38223;50.940;4.034;2024-03-08T13:19:47;13.50;99.90
52267;DHT22;38223;50.940;4.034;2024-03-08T13:22:14;13.40;99.90
52267;DHT22;38223;50.940;4.034;2024-03-08T13:24:46;13.80;99.90
52267;DHT22;38223;50.940;4.034;2024-03-08T13:27:14;14.10;99.90
52267;DHT22;38223;50.940;4.034;2024-03-08T13:29:48;14.00;99.90
52267;DHT22;38223;50.940;4.034;2024-03-08T13:32:19;14.30;99.90
52267;DHT22;38223;50.940;4.034;2024-03-08T13:34:54;14.20;99.90
52267;DHT22;38223;50.940;4.034;2024-03-08T13:37:25;14.30;99.90
52267;DHT22;38223;50.940;4.034;2024-03-08T13:39:54;14.70;99.90
52267;DHT22;38223;50.940;4.034;2024-03-08T13:42:31;15.00;99.90
52267;DHT22;38223;50.940;4.034;2024-03-08T13:44:54;14.70;99.90
52267;DHT22;38223;50.940;4.034;2024-03-08T13:47:26;14.30;99.90
52267;DHT22;38223;50.940;4.034;2024-03-08T13:50:22;13.60;99.90
52267;DHT22;38223;50.940;4.034;2024-03-08T13:52:52;13.90;99.90
52267;DHT22;38223;50.940;4.034;2024-03-08T13:55:20;13.50;99.90
52267;DHT22;38223;50.940;4.034;2024-03-08T13:57:49;13.70;99.90
52267;DHT22;38223;50.940;4.034;2024-03-08T14:00:18;14.00;99.90
52267;DHT22;38223;50.940;4.034;2024-03-08T14:02:49;13.60;99.90
52267;DHT22;38223;50.940;4.034;2024-03-08T14:05:17;13.60;99.90
52267;DHT22;38223;50.940;4.034;2024-03-08T14:07:48;13.30;99.90
52267;DHT22;38223;50.940;4.034;2024-03-08T14:10:16;12.70;99.90
52267;DHT22;38223;50.940;4.034;2024-03-08T14:12:48;12.30;99.90
52267;DHT22;38223;50.940;4.034;2024-03-08T14:15:19;12.20;99.90
52267;DHT22;38223;50.940;4.034;2024-03-08T14:17:52;12.70;99.90
52267;DHT22;38223;50.940;4.034;2024-03-08T14:20:24;13.30;99.90
52267;DHT22;38223;50.940;4.034;2024-03-08T14:22:55;13.60;99.90
52267;DHT22;38223;50.940;4.034;2024-03-08T14:25:23;14.00;99.90
52267;DHT22;38223;50.940;4.034;2024-03-08T14:27:54;14.10;99.90
52267;DHT22;38223;50.940;4.034;2024-03-08T14:30:23;14.30;99.90
52267;DHT22;38223;50.940;4.034;2024-03-08T14:33:04;14.30;99.90
52267;DHT22;38223;50.940;4.034;2024-03-08T14:35:35;14.70;99.90
52267;DHT22;38223;50.940;4.034;2024-03-08T14:38:04;15.00;99.90
52267;DHT22;38223;50.940;4.034;2024-03-08T14:40:35;15.40;99.90
52267;DHT22;38223;50.940;4.034;2024-03-08T14:43:03;15.50;99.90
52267;DHT22;38223;50.940;4.034;2024-03-08T14:45:34;15.60;99.90
52267;DHT22;38223;50.940;4.034;2024-03-08T14:48:08;15.60;99.90
52267;DHT22;38223;50.940;4.034;2024-03-08T14:50:48;15.50;99.90
52267;DHT22;38223;50.940;4.034;2024-03-08T14:53:18;15.30;99.90
52267;DHT22;38223;50.940;4.034;2024-03-08T14:55:50;14.90;99.90
52267;DHT22;38223;50.940;4.034;2024-03-08T14:58:20;14.20;99.90
52267;DHT22;38223;50.940;4.034;2024-03-08T15:00:49;13.60;99.90
52267;DHT22;38223;50.940;4.034;2024-03-08T15:03:19;13.10;99.90
52267;DHT22;38223;50.940;4.034;2024-03-08T15:05:49;12.90;99.90
52267;DHT22;38223;50.940;4.034;2024-03-08T15:08:21;12.70;99.90
52267;DHT22;38223;50.940;4.034;2024-03-08T15:10:49;12.60;99.90
52267;DHT22;38223;50.940;4.034;2024-03-08T15:13:24;12.50;99.90
52267;DHT22;38223;50.940;4.034;2024-03-08T15:15:54;12.60;99.90
52267;DHT22;38223;50.940;4.034;2024-03-08T15:18:25;12.60;99.90
52267;DHT22;38223;50.940;4.034;2024-03-08T15:21:04;12.50;99.90
52267;DHT22;38223;50.940;4.034;2024-03-08T15:23:35;12.40;99.90
52267;DHT22;38223;50.940;4.034;2024-03-08T15:26:05;12.40;99.90
52267;DHT22;38223;50.940;4.034;2024-03-08T15:28:33;12.40;99.90
52267;DHT22;38223;50.940;4.034;2024-03-08T15:31:03;12.40;99.90
52267;DHT22;38223;50.940;4.034;2024-03-08T15:33:37;12.40;99.90
52267;DHT22;38223;50.940;4.034;2024-03-08T15:36:08;12.90;99.90
52267;DHT22;38223;50.940;4.034;2024-03-08T15:38:37;13.50;99.90
52267;DHT22;38223;50.940;4.034;2024-03-08T15:41:05;13.50;99.90
52267;DHT22;38223;50.940;4.034;2024-03-08T15:43:38;13.40;99.90
52267;DHT22;38223;50.940;4.034;2024-03-08T15:46:07;13.30;99.90
52267;DHT22;38223;50.940;4.034;2024-03-08T15:48:39;13.30;99.90
52267;DHT22;38223;50.940;4.034;2024-03-08T15:51:11;13.60;99.90
52267;DHT22;38223;50.940;4.034;2024-03-08T15:53:39;13.80;99.90
52267;DHT22;38223;50.940;4.034;2024-03-08T15:56:27;13.90;99.90
52267;DHT22;38223;50.940;4.034;2024-03-08T15:58:54;13.80;99.90
52267;DHT22;38223;50.940;4.034;2024-03-08T16:01:24;13.50;99.90
52267;DHT22;38223;50.940;4.034;2024-03-08T16:03:54;13.80;99.90
52267;DHT22;38223;50.940;4.034;2024-03-08T16:06:28;14.00;99.90
52267;DHT22;38223;50.940;4.034;2024-03-08T16:08:56;14.20;99.90
52267;DHT22;38223;50.940;4.034;2024-03-08T16:11:26;14.30;99.90
52267;DHT22;38223;50.940;4.034;2024-03-08T16:14:02;14.20;99.90
52267;DHT22;38223;50.940;4.034;2024-03-08T16:16:35;14.30;99.90
52267;DHT22;38223;50.940;4.034;2024-03-08T16:19:07;14.30;99.90
52267;DHT22;38223;50.940;4.034;2024-03-08T16:21:39;13.90;99.90